sensor_id;sensor_type;location;lat;lon;timestamp;temperature;humidity
23715;DHT22;12036;50.858;4.472;2022-12-07T00:01:10;6.50;99.90
23715;DHT22;12036;50.858;4.472;2022-12-07T00:03:38;6.40;99.90
23715;DHT22;12036;50.858;4.472;2022-12-07T00:06:06;6.40;99.90
23715;DHT22;12036;50.858;4.472;2022-12-07T00:08:33;6.30;99.90
23715;DHT22;12036;50.858;4.472;2022-12-07T00:11:03;6.30;99.90
23715;DHT22;12036;50.858;4.472;2022-12-07T00:13:30;6.30;99.90
23715;DHT22;12036;50.858;4.472;2022-12-07T00:15:55;6.30;99.90
23715;DHT22;12036;50.858;4.472;2022-12-07T00:18:21;6.20;99.90
23715;DHT22;12036;50.858;4.472;2022-12-07T00:20:47;6.10;99.90
23715;DHT22;12036;50.858;4.472;2022-12-07T00:23:15;6.10;99.90
23715;DHT22;12036;50.858;4.472;2022-12-07T00:25:41;6.00;99.90
23715;DHT22;12036;50.858;4.472;2022-12-07T00:28:06;6.00;99.90
23715;DHT22;12036;50.858;4.472;2022-12-07T00:30:34;5.90;99.90
23715;DHT22;12036;50.858;4.472;2022-12-07T00:33:00;5.80;99.90
23715;DHT22;12036;50.858;4.472;2022-12-07T00:35:25;5.80;99.90
23715;DHT22;12036;50.858;4.472;2022-12-07T00:37:51;5.80;99.90
23715;DHT22;12036;50.858;4.472;2022-12-07T00:40:17;5.70;99.90
23715;DHT22;12036;50.858;4.472;2022-12-07T00:42:42;5.60;99.90
23715;DHT22;12036;50.858;4.472;2022-12-07T00:45:08;5.60;99.90
23715;DHT22;12036;50.858;4.472;2022-12-07T00:47:34;5.50;99.90
23715;DHT22;12036;50.858;4.472;2022-12-07T00:49:59;5.40;99.90
23715;DHT22;12036;50.858;4.472;2022-12-07T00:52:25;5.40;99.90
23715;DHT22;12036;50.858;4.472;2022-12-07T00:54:51;5.40;99.90
23715;DHT22;12036;50.858;4.472;2022-12-07T00:57:17;5.30;99.90
23715;DHT22;12036;50.858;4.472;2022-12-07T00:59:42;5.30;99.90
23715;DHT22;12036;50.858;4.472;2022-12-07T01:02:08;5.30;99.90
23715;DHT22;12036;50.858;4.472;2022-12-07T01:04:34;5.20;99.90
23715;DHT22;12036;50.858;4.472;2022-12-07T01:07:00;5.10;99.90
23715;DHT22;12036;50.858;4.472;2022-12-07T01:09:25;5.10;99.90
23715;DHT22;12036;50.858;4.472;2022-12-07T01:11:51;5.10;99.90
23715;DHT22;12036;50.858;4.472;2022-12-07T01:14:17;5.00;99.90
23715;DHT22;12036;50.858;4.472;2022-12-07T01:16:42;4.90;99.90
23715;DHT22;12036;50.858;4.472;2022-12-07T01:19:08;4.90;99.90
23715;DHT22;12036;50.858;4.472;2022-12-07T01:21:35;4.90;99.90
23715;DHT22;12036;50.858;4.472;2022-12-07T01:24:04;4.90;99.90
23715;DHT22;12036;50.858;4.472;2022-12-07T01:26:30;4.90;99.90
23715;DHT22;12036;50.858;4.472;2022-12-07T01:28:56;4.90;99.90
23715;DHT22;12036;50.858;4.472;2022-12-07T01:31:25;4.90;99.90
23715;DHT22;12036;50.858;4.472;2022-12-07T01:33:55;4.90;99.90
23715;DHT22;12036;50.858;4.472;2022-12-07T01:36:32;4.90;99.90
23715;DHT22;12036;50.858;4.472;2022-12-07T01:39:01;4.80;99.90
23715;DHT22;12036;50.858;4.472;2022-12-07T01:41:30;4.80;99.90
23715;DHT22;12036;50.858;4.472;2022-12-07T01:46:42;4.80;99.90
23715;DHT22;12036;50.858;4.472;2022-12-07T01:49:39;4.80;99.90
23715;DHT22;12036;50.858;4.472;2022-12-07T01:52:14;4.80;99.90
23715;DHT22;12036;50.858;4.472;2022-12-07T01:54:42;4.70;99.90
23715;DHT22;12036;50.858;4.472;2022-12-07T01:57:09;4.80;99.90
23715;DHT22;12036;50.858;4.472;2022-12-07T01:59:35;4.90;99.90
23715;DHT22;12036;50.858;4.472;2022-12-07T02:02:04;4.90;99.90
23715;DHT22;12036;50.858;4.472;2022-12-07T02:04:31;5.10;99.90
23715;DHT22;12036;50.858;4.472;2022-12-07T02:06:57;5.10;99.90
23715;DHT22;12036;50.858;4.472;2022-12-07T02:09:23;5.20;99.90
23715;DHT22;12036;50.858;4.472;2022-12-07T02:11:49;5.20;99.90
23715;DHT22;12036;50.858;4.472;2022-12-07T02:14:15;5.30;99.90
23715;DHT22;12036;50.858;4.472;2022-12-07T02:17:03;5.30;99.90
23715;DHT22;12036;50.858;4.472;2022-12-07T02:28:22;5.40;99.90
23715;DHT22;12036;50.858;4.472;2022-12-07T02:30:52;5.40;99.90
23715;DHT22;12036;50.858;4.472;2022-12-07T02:33:38;5.50;99.90
23715;DHT22;12036;50.858;4.472;2022-12-07T02:36:28;5.50;99.90
23715;DHT22;12036;50.858;4.472;2022-12-07T02:41:29;5.60;99.90
23715;DHT22;12036;50.858;4.472;2022-12-07T02:44:02;5.60;99.90
23715;DHT22;12036;50.858;4.472;2022-12-07T02:46:36;5.60;99.90
23715;DHT22;12036;50.858;4.472;2022-12-07T02:49:03;5.60;99.90
23715;DHT22;12036;50.858;4.472;2022-12-07T02:51:33;5.60;99.90
23715;DHT22;12036;50.858;4.472;2022-12-07T02:53:59;5.60;99.90
23715;DHT22;12036;50.858;4.472;2022-12-07T03:08:11;5.30;99.90
23715;DHT22;12036;50.858;4.472;2022-12-07T03:10:55;5.20;99.90
23715;DHT22;12036;50.858;4.472;2022-12-07T03:16:21;5.00;99.90
23715;DHT22;12036;50.858;4.472;2022-12-07T03:19:10;5.00;99.90
23715;DHT22;12036;50.858;4.472;2022-12-07T03:21:42;5.00;99.90
23715;DHT22;12036;50.858;4.472;2022-12-07T03:24:13;5.00;99.90
23715;DHT22;12036;50.858;4.472;2022-12-07T03:26:44;5.00;99.90
23715;DHT22;12036;50.858;4.472;2022-12-07T03:29:27;5.10;99.90
23715;DHT22;12036;50.858;4.472;2022-12-07T03:32:19;5.10;99.90
23715;DHT22;12036;50.858;4.472;2022-12-07T03:34:53;5.20;99.90
23715;DHT22;12036;50.858;4.472;2022-12-07T03:40:24;5.30;99.90
23715;DHT22;12036;50.858;4.472;2022-12-07T03:42:52;5.30;99.90
23715;DHT22;12036;50.858;4.472;2022-12-07T03:45:21;5.30;99.90
23715;DHT22;12036;50.858;4.472;2022-12-07T03:48:00;5.30;99.90
23715;DHT22;12036;50.858;4.472;2022-12-07T03:53:46;5.30;99.90
23715;DHT22;12036;50.858;4.472;2022-12-07T03:56:14;5.20;99.90
23715;DHT22;12036;50.858;4.472;2022-12-07T03:58:41;5.10;99.90
23715;DHT22;12036;50.858;4.472;2022-12-07T04:01:07;5.10;99.90
23715;DHT22;12036;50.858;4.472;2022-12-07T04:03:33;5.00;99.90
23715;DHT22;12036;50.858;4.472;2022-12-07T04:05:59;5.00;99.90
23715;DHT22;12036;50.858;4.472;2022-12-07T04:08:25;4.90;99.90
23715;DHT22;12036;50.858;4.472;2022-12-07T04:10:50;4.90;99.90
23715;DHT22;12036;50.858;4.472;2022-12-07T04:13:16;4.80;99.90
23715;DHT22;12036;50.858;4.472;2022-12-07T04:15:42;4.70;99.90
23715;DHT22;12036;50.858;4.472;2022-12-07T04:18:07;4.70;99.90
23715;DHT22;12036;50.858;4.472;2022-12-07T04:20:33;4.70;99.90
23715;DHT22;12036;50.858;4.472;2022-12-07T04:22:58;4.60;99.90
23715;DHT22;12036;50.858;4.472;2022-12-07T04:25:24;4.60;99.90
23715;DHT22;12036;50.858;4.472;2022-12-07T04:27:50;4.50;99.90
23715;DHT22;12036;50.858;4.472;2022-12-07T04:30:15;4.50;99.90
23715;DHT22;12036;50.858;4.472;2022-12-07T04:32:41;4.50;99.90
23715;DHT22;12036;50.858;4.472;2022-12-07T04:35:07;4.50;99.90
23715;DHT22;12036;50.858;4.472;2022-12-07T04:37:33;4.50;99.90
23715;DHT22;12036;50.858;4.472;2022-12-07T04:39:59;4.50;99.90
23715;DHT22;12036;50.858;4.472;2022-12-07T04:42:24;4.50;99.90
23715;DHT22;12036;50.858;4.472;2022-12-07T04:44:50;4.50;99.90
23715;DHT22;12036;50.858;4.472;2022-12-07T04:47:16;4.50;99.90
23715;DHT22;12036;50.858;4.472;2022-12-07T04:49:42;4.60;99.90
23715;DHT22;12036;50.858;4.472;2022-12-07T04:52:08;4.60;99.90
23715;DHT22;12036;50.858;4.472;2022-12-07T04:54:34;4.60;99.90
23715;DHT22;12036;50.858;4.472;2022-12-07T04:56:59;4.70;99.90
23715;DHT22;12036;50.858;4.472;2022-12-07T04:59:25;4.60;99.90
23715;DHT22;12036;50.858;4.472;2022-12-07T05:01:51;4.70;99.90
23715;DHT22;12036;50.858;4.472;2022-12-07T05:04:16;4.70;99.90
23715;DHT22;12036;50.858;4.472;2022-12-07T05:06:43;4.70;99.90
23715;DHT22;12036;50.858;4.472;2022-12-07T05:09:09;4.60;99.90
23715;DHT22;12036;50.858;4.472;2022-12-07T05:11:35;4.70;99.90
23715;DHT22;12036;50.858;4.472;2022-12-07T05:14:15;4.70;99.90
23715;DHT22;12036;50.858;4.472;2022-12-07T05:16:42;4.70;99.90
23715;DHT22;12036;50.858;4.472;2022-12-07T05:19:08;4.70;99.90
23715;DHT22;12036;50.858;4.472;2022-12-07T05:21:35;4.80;99.90
23715;DHT22;12036;50.858;4.472;2022-12-07T05:24:01;4.80;99.90
23715;DHT22;12036;50.858;4.472;2022-12-07T05:26:27;4.80;99.90
23715;DHT22;12036;50.858;4.472;2022-12-07T05:28:55;4.90;99.90
23715;DHT22;12036;50.858;4.472;2022-12-07T05:31:21;4.90;99.90
23715;DHT22;12036;50.858;4.472;2022-12-07T05:33:47;5.00;99.90
23715;DHT22;12036;50.858;4.472;2022-12-07T05:36:13;5.00;99.90
23715;DHT22;12036;50.858;4.472;2022-12-07T05:38:39;5.00;99.90
23715;DHT22;12036;50.858;4.472;2022-12-07T05:41:06;5.10;99.90
23715;DHT22;12036;50.858;4.472;2022-12-07T05:43:32;5.10;99.90
23715;DHT22;12036;50.858;4.472;2022-12-07T05:45:58;5.10;99.90
23715;DHT22;12036;50.858;4.472;2022-12-07T05:48:24;5.10;99.90
23715;DHT22;12036;50.858;4.472;2022-12-07T05:50:51;5.20;99.90
23715;DHT22;12036;50.858;4.472;2022-12-07T05:53:17;5.20;99.90
23715;DHT22;12036;50.858;4.472;2022-12-07T05:55:43;5.20;99.90
23715;DHT22;12036;50.858;4.472;2022-12-07T05:58:09;5.30;99.90
23715;DHT22;12036;50.858;4.472;2022-12-07T06:00:56;5.30;99.90
23715;DHT22;12036;50.858;4.472;2022-12-07T06:03:22;5.40;99.90
23715;DHT22;12036;50.858;4.472;2022-12-07T06:05:48;5.40;99.90
23715;DHT22;12036;50.858;4.472;2022-12-07T06:08:14;5.40;99.90
23715;DHT22;12036;50.858;4.472;2022-12-07T06:10:42;5.30;99.90
23715;DHT22;12036;50.858;4.472;2022-12-07T06:13:08;5.30;99.90
23715;DHT22;12036;50.858;4.472;2022-12-07T06:15:37;5.30;99.90
23715;DHT22;12036;50.858;4.472;2022-12-07T06:18:03;5.40;99.90
23715;DHT22;12036;50.858;4.472;2022-12-07T06:20:28;5.40;99.90
23715;DHT22;12036;50.858;4.472;2022-12-07T06:22:54;5.40;99.90
23715;DHT22;12036;50.858;4.472;2022-12-07T06:25:21;5.40;99.90
23715;DHT22;12036;50.858;4.472;2022-12-07T06:27:46;5.50;99.90
23715;DHT22;12036;50.858;4.472;2022-12-07T06:30:12;5.40;99.90
23715;DHT22;12036;50.858;4.472;2022-12-07T06:32:38;5.40;99.90
23715;DHT22;12036;50.858;4.472;2022-12-07T06:35:04;5.30;99.90
23715;DHT22;12036;50.858;4.472;2022-12-07T06:37:29;5.30;99.90
23715;DHT22;12036;50.858;4.472;2022-12-07T06:39:55;5.20;99.90
23715;DHT22;12036;50.858;4.472;2022-12-07T06:42:21;5.20;99.90
23715;DHT22;12036;50.858;4.472;2022-12-07T06:44:47;5.10;99.90
23715;DHT22;12036;50.858;4.472;2022-12-07T06:47:12;5.10;99.90
23715;DHT22;12036;50.858;4.472;2022-12-07T06:49:38;5.10;99.90
23715;DHT22;12036;50.858;4.472;2022-12-07T06:52:04;5.20;99.90
23715;DHT22;12036;50.858;4.472;2022-12-07T06:54:31;5.20;99.90
23715;DHT22;12036;50.858;4.472;2022-12-07T06:56:57;5.20;99.90
23715;DHT22;12036;50.858;4.472;2022-12-07T06:59:22;5.20;99.90
23715;DHT22;12036;50.858;4.472;2022-12-07T07:01:48;5.20;99.90
23715;DHT22;12036;50.858;4.472;2022-12-07T07:04:13;5.30;99.90
23715;DHT22;12036;50.858;4.472;2022-12-07T07:06:39;5.30;99.90
23715;DHT22;12036;50.858;4.472;2022-12-07T07:09:05;5.30;99.90
23715;DHT22;12036;50.858;4.472;2022-12-07T07:11:31;5.30;99.90
23715;DHT22;12036;50.858;4.472;2022-12-07T07:13:56;5.30;99.90
23715;DHT22;12036;50.858;4.472;2022-12-07T07:16:24;5.30;99.90
23715;DHT22;12036;50.858;4.472;2022-12-07T07:18:50;5.30;99.90
23715;DHT22;12036;50.858;4.472;2022-12-07T07:21:15;5.30;99.90
23715;DHT22;12036;50.858;4.472;2022-12-07T07:23:41;5.20;99.90
23715;DHT22;12036;50.858;4.472;2022-12-07T07:26:06;5.20;99.90
23715;DHT22;12036;50.858;4.472;2022-12-07T07:28:32;5.20;99.90
23715;DHT22;12036;50.858;4.472;2022-12-07T07:30:58;5.20;99.90
23715;DHT22;12036;50.858;4.472;2022-12-07T07:33:23;5.10;99.90
23715;DHT22;12036;50.858;4.472;2022-12-07T07:35:49;5.10;99.90
23715;DHT22;12036;50.858;4.472;2022-12-07T07:38:15;5.00;99.90
23715;DHT22;12036;50.858;4.472;2022-12-07T07:40:40;5.00;99.90
23715;DHT22;12036;50.858;4.472;2022-12-07T07:43:06;5.00;99.90
23715;DHT22;12036;50.858;4.472;2022-12-07T07:45:32;4.90;99.90
23715;DHT22;12036;50.858;4.472;2022-12-07T07:47:57;4.90;99.90
23715;DHT22;12036;50.858;4.472;2022-12-07T07:50:23;4.90;99.90
23715;DHT22;12036;50.858;4.472;2022-12-07T07:52:49;4.80;99.90
23715;DHT22;12036;50.858;4.472;2022-12-07T07:55:15;4.80;99.90
23715;DHT22;12036;50.858;4.472;2022-12-07T07:57:41;4.80;99.90
23715;DHT22;12036;50.858;4.472;2022-12-07T08:00:13;4.70;99.90
23715;DHT22;12036;50.858;4.472;2022-12-07T08:02:40;4.70;99.90
23715;DHT22;12036;50.858;4.472;2022-12-07T08:05:06;4.70;99.90
23715;DHT22;12036;50.858;4.472;2022-12-07T08:07:32;4.70;99.90
23715;DHT22;12036;50.858;4.472;2022-12-07T08:09:57;4.70;99.90
23715;DHT22;12036;50.858;4.472;2022-12-07T08:12:23;4.70;99.90
23715;DHT22;12036;50.858;4.472;2022-12-07T08:14:49;4.70;99.90
23715;DHT22;12036;50.858;4.472;2022-12-07T08:17:14;4.70;99.90
23715;DHT22;12036;50.858;4.472;2022-12-07T08:19:40;4.70;99.90
23715;DHT22;12036;50.858;4.472;2022-12-07T08:22:06;4.70;99.90
23715;DHT22;12036;50.858;4.472;2022-12-07T08:24:35;4.60;99.90
23715;DHT22;12036;50.858;4.472;2022-12-07T08:27:02;4.60;99.90
23715;DHT22;12036;50.858;4.472;2022-12-07T08:29:28;4.60;99.90
23715;DHT22;12036;50.858;4.472;2022-12-07T08:31:53;4.70;99.90
23715;DHT22;12036;50.858;4.472;2022-12-07T08:34:19;4.70;99.90
23715;DHT22;12036;50.858;4.472;2022-12-07T08:36:45;4.80;99.90
23715;DHT22;12036;50.858;4.472;2022-12-07T08:39:10;4.90;99.90
23715;DHT22;12036;50.858;4.472;2022-12-07T08:41:36;4.90;99.90
23715;DHT22;12036;50.858;4.472;2022-12-07T08:44:02;4.90;99.90
23715;DHT22;12036;50.858;4.472;2022-12-07T08:49:14;5.10;99.90
23715;DHT22;12036;50.858;4.472;2022-12-07T08:51:41;5.20;99.90
23715;DHT22;12036;50.858;4.472;2022-12-07T08:54:10;5.30;99.90
23715;DHT22;12036;50.858;4.472;2022-12-07T08:56:36;5.40;99.90
23715;DHT22;12036;50.858;4.472;2022-12-07T08:59:04;5.50;99.90
23715;DHT22;12036;50.858;4.472;2022-12-07T09:01:29;5.60;99.90
23715;DHT22;12036;50.858;4.472;2022-12-07T09:03:55;5.70;99.90
23715;DHT22;12036;50.858;4.472;2022-12-07T09:06:21;5.90;99.90
23715;DHT22;12036;50.858;4.472;2022-12-07T09:08:49;6.10;99.90
23715;DHT22;12036;50.858;4.472;2022-12-07T09:11:16;6.20;99.90
23715;DHT22;12036;50.858;4.472;2022-12-07T09:13:42;6.30;99.90
23715;DHT22;12036;50.858;4.472;2022-12-07T09:16:07;6.40;99.90
23715;DHT22;12036;50.858;4.472;2022-12-07T09:18:33;6.60;99.90
23715;DHT22;12036;50.858;4.472;2022-12-07T09:20:59;6.70;99.90
23715;DHT22;12036;50.858;4.472;2022-12-07T09:23:24;6.80;99.90
23715;DHT22;12036;50.858;4.472;2022-12-07T09:25:50;6.80;99.90
23715;DHT22;12036;50.858;4.472;2022-12-07T09:28:16;6.90;99.90
23715;DHT22;12036;50.858;4.472;2022-12-07T09:30:46;6.90;99.90
23715;DHT22;12036;50.858;4.472;2022-12-07T09:33:12;7.00;99.90
23715;DHT22;12036;50.858;4.472;2022-12-07T09:35:38;7.10;99.90
23715;DHT22;12036;50.858;4.472;2022-12-07T09:38:09;7.10;99.90
23715;DHT22;12036;50.858;4.472;2022-12-07T09:40:34;7.10;99.90
23715;DHT22;12036;50.858;4.472;2022-12-07T09:43:00;7.20;99.90
23715;DHT22;12036;50.858;4.472;2022-12-07T09:45:36;7.20;99.90
23715;DHT22;12036;50.858;4.472;2022-12-07T09:48:03;7.20;99.90
23715;DHT22;12036;50.858;4.472;2022-12-07T09:50:29;7.10;99.90
23715;DHT22;12036;50.858;4.472;2022-12-07T09:53:13;7.10;99.90
23715;DHT22;12036;50.858;4.472;2022-12-07T09:55:40;7.10;99.90
23715;DHT22;12036;50.858;4.472;2022-12-07T09:58:08;7.20;99.90
23715;DHT22;12036;50.858;4.472;2022-12-07T10:00:34;7.20;99.90
23715;DHT22;12036;50.858;4.472;2022-12-07T10:03:01;7.30;99.90
23715;DHT22;12036;50.858;4.472;2022-12-07T10:05:36;7.30;99.90
23715;DHT22;12036;50.858;4.472;2022-12-07T10:08:04;7.40;99.90
23715;DHT22;12036;50.858;4.472;2022-12-07T10:10:33;7.50;99.90
23715;DHT22;12036;50.858;4.472;2022-12-07T10:13:02;7.60;99.90
23715;DHT22;12036;50.858;4.472;2022-12-07T10:15:52;7.80;99.90
23715;DHT22;12036;50.858;4.472;2022-12-07T10:21:02;8.10;99.90
23715;DHT22;12036;50.858;4.472;2022-12-07T10:23:28;8.10;99.90
23715;DHT22;12036;50.858;4.472;2022-12-07T10:25:54;8.10;99.90
23715;DHT22;12036;50.858;4.472;2022-12-07T10:28:21;8.20;99.90
23715;DHT22;12036;50.858;4.472;2022-12-07T10:31:01;8.30;99.90
23715;DHT22;12036;50.858;4.472;2022-12-07T10:36:25;8.40;99.90
23715;DHT22;12036;50.858;4.472;2022-12-07T10:39:15;8.40;99.90
23715;DHT22;12036;50.858;4.472;2022-12-07T10:44:29;8.40;99.90
23715;DHT22;12036;50.858;4.472;2022-12-07T11:22:05;8.10;99.90
23715;DHT22;12036;50.858;4.472;2022-12-07T11:27:41;8.20;99.90
23715;DHT22;12036;50.858;4.472;2022-12-07T11:30:20;8.20;99.90
23715;DHT22;12036;50.858;4.472;2022-12-07T11:35:52;8.00;99.90
23715;DHT22;12036;50.858;4.472;2022-12-07T11:38:52;7.90;99.90
23715;DHT22;12036;50.858;4.472;2022-12-07T11:41:23;7.90;99.90
23715;DHT22;12036;50.858;4.472;2022-12-07T11:47:34;8.00;99.90
23715;DHT22;12036;50.858;4.472;2022-12-07T11:53:29;8.20;99.90
23715;DHT22;12036;50.858;4.472;2022-12-07T11:55:43;8.20;99.90
23715;DHT22;12036;50.858;4.472;2022-12-07T11:58:38;8.30;99.90
23715;DHT22;12036;50.858;4.472;2022-12-07T12:06:22;8.20;99.90
23715;DHT22;12036;50.858;4.472;2022-12-07T12:09:16;8.30;99.90
23715;DHT22;12036;50.858;4.472;2022-12-07T12:25:56;8.90;99.90
23715;DHT22;12036;50.858;4.472;2022-12-07T12:28:40;8.80;99.90
23715;DHT22;12036;50.858;4.472;2022-12-07T12:31:28;8.80;99.90
23715;DHT22;12036;50.858;4.472;2022-12-07T12:33:58;8.80;99.90
23715;DHT22;12036;50.858;4.472;2022-12-07T12:51:52;8.50;99.90
23715;DHT22;12036;50.858;4.472;2022-12-07T13:01:47;8.20;99.90
23715;DHT22;12036;50.858;4.472;2022-12-07T13:04:48;8.20;99.90
23715;DHT22;12036;50.858;4.472;2022-12-07T13:29:18;8.20;99.90
23715;DHT22;12036;50.858;4.472;2022-12-07T13:31:50;8.30;99.90
23715;DHT22;12036;50.858;4.472;2022-12-07T13:34:37;8.30;99.90
23715;DHT22;12036;50.858;4.472;2022-12-07T13:37:24;8.30;99.90
23715;DHT22;12036;50.858;4.472;2022-12-07T13:40:01;8.20;99.90
23715;DHT22;12036;50.858;4.472;2022-12-07T13:42:38;8.30;99.90
23715;DHT22;12036;50.858;4.472;2022-12-07T13:48:36;8.40;99.90
23715;DHT22;12036;50.858;4.472;2022-12-07T13:51:02;8.30;99.90
23715;DHT22;12036;50.858;4.472;2022-12-07T13:53:28;8.30;99.90
23715;DHT22;12036;50.858;4.472;2022-12-07T13:55:56;8.30;99.90
23715;DHT22;12036;50.858;4.472;2022-12-07T13:58:24;8.30;99.90
23715;DHT22;12036;50.858;4.472;2022-12-07T14:00:50;8.50;99.90
23715;DHT22;12036;50.858;4.472;2022-12-07T14:05:43;8.50;99.90
23715;DHT22;12036;50.858;4.472;2022-12-07T14:10:41;8.60;99.90
23715;DHT22;12036;50.858;4.472;2022-12-07T14:15:55;8.50;99.90
23715;DHT22;12036;50.858;4.472;2022-12-07T14:18:36;8.30;99.90
23715;DHT22;12036;50.858;4.472;2022-12-07T14:23:40;7.70;99.90
23715;DHT22;12036;50.858;4.472;2022-12-07T14:26:19;7.30;99.90
23715;DHT22;12036;50.858;4.472;2022-12-07T14:28:45;7.20;99.90
23715;DHT22;12036;50.858;4.472;2022-12-07T14:31:18;7.10;99.90
23715;DHT22;12036;50.858;4.472;2022-12-07T14:33:46;6.90;99.90
23715;DHT22;12036;50.858;4.472;2022-12-07T14:36:13;6.80;99.90
23715;DHT22;12036;50.858;4.472;2022-12-07T14:38:39;6.80;99.90
23715;DHT22;12036;50.858;4.472;2022-12-07T14:41:18;6.70;99.90
23715;DHT22;12036;50.858;4.472;2022-12-07T14:44:11;6.70;99.90
23715;DHT22;12036;50.858;4.472;2022-12-07T14:46:37;6.70;99.90
23715;DHT22;12036;50.858;4.472;2022-12-07T14:49:02;6.70;99.90
23715;DHT22;12036;50.858;4.472;2022-12-07T14:51:28;6.60;99.90
23715;DHT22;12036;50.858;4.472;2022-12-07T14:53:54;6.60;99.90
23715;DHT22;12036;50.858;4.472;2022-12-07T14:56:20;6.60;99.90
23715;DHT22;12036;50.858;4.472;2022-12-07T14:58:46;6.50;99.90
23715;DHT22;12036;50.858;4.472;2022-12-07T15:01:13;6.60;99.90
23715;DHT22;12036;50.858;4.472;2022-12-07T15:03:39;6.50;99.90
23715;DHT22;12036;50.858;4.472;2022-12-07T15:06:06;6.60;99.90
23715;DHT22;12036;50.858;4.472;2022-12-07T15:08:33;6.50;99.90
23715;DHT22;12036;50.858;4.472;2022-12-07T15:10:58;6.50;99.90
23715;DHT22;12036;50.858;4.472;2022-12-07T15:13:24;6.60;99.90
23715;DHT22;12036;50.858;4.472;2022-12-07T15:16:15;6.60;99.90
23715;DHT22;12036;50.858;4.472;2022-12-07T15:18:42;6.60;99.90
23715;DHT22;12036;50.858;4.472;2022-12-07T15:21:13;6.50;99.90
23715;DHT22;12036;50.858;4.472;2022-12-07T15:23:39;6.60;99.90
23715;DHT22;12036;50.858;4.472;2022-12-07T15:26:04;6.60;99.90
23715;DHT22;12036;50.858;4.472;2022-12-07T15:28:30;6.60;99.90
23715;DHT22;12036;50.858;4.472;2022-12-07T15:30:56;6.50;99.90
23715;DHT22;12036;50.858;4.472;2022-12-07T15:33:21;6.50;99.90
23715;DHT22;12036;50.858;4.472;2022-12-07T15:35:47;6.50;99.90
23715;DHT22;12036;50.858;4.472;2022-12-07T15:38:13;6.50;99.90
23715;DHT22;12036;50.858;4.472;2022-12-07T15:40:38;6.50;99.90
23715;DHT22;12036;50.858;4.472;2022-12-07T15:43:04;6.50;99.90
23715;DHT22;12036;50.858;4.472;2022-12-07T15:45:30;6.50;99.90
23715;DHT22;12036;50.858;4.472;2022-12-07T15:47:55;6.50;99.90
23715;DHT22;12036;50.858;4.472;2022-12-07T15:50:21;6.50;99.90
23715;DHT22;12036;50.858;4.472;2022-12-07T15:52:48;6.50;99.90
23715;DHT22;12036;50.858;4.472;2022-12-07T15:55:14;6.50;99.90
23715;DHT22;12036;50.858;4.472;2022-12-07T15:57:39;6.50;99.90
23715;DHT22;12036;50.858;4.472;2022-12-07T16:00:07;6.50;99.90
23715;DHT22;12036;50.858;4.472;2022-12-07T16:02:34;6.50;99.90
23715;DHT22;12036;50.858;4.472;2022-12-07T16:04:59;6.40;99.90
23715;DHT22;12036;50.858;4.472;2022-12-07T16:07:25;6.50;99.90
23715;DHT22;12036;50.858;4.472;2022-12-07T16:09:51;6.40;99.90
23715;DHT22;12036;50.858;4.472;2022-12-07T16:12:17;6.40;99.90
23715;DHT22;12036;50.858;4.472;2022-12-07T16:14:42;6.40;99.90
23715;DHT22;12036;50.858;4.472;2022-12-07T16:17:09;6.40;99.90
23715;DHT22;12036;50.858;4.472;2022-12-07T16:19:35;6.40;99.90
23715;DHT22;12036;50.858;4.472;2022-12-07T16:22:02;6.40;99.90
23715;DHT22;12036;50.858;4.472;2022-12-07T16:24:28;6.40;99.90
23715;DHT22;12036;50.858;4.472;2022-12-07T16:26:54;6.40;99.90
23715;DHT22;12036;50.858;4.472;2022-12-07T16:29:22;6.40;99.90
23715;DHT22;12036;50.858;4.472;2022-12-07T16:31:48;6.40;99.90
23715;DHT22;12036;50.858;4.472;2022-12-07T16:34:14;6.40;99.90
23715;DHT22;12036;50.858;4.472;2022-12-07T16:36:39;6.40;99.90
23715;DHT22;12036;50.858;4.472;2022-12-07T16:39:05;6.50;99.90
23715;DHT22;12036;50.858;4.472;2022-12-07T16:41:31;6.50;99.90
23715;DHT22;12036;50.858;4.472;2022-12-07T16:44:02;6.50;99.90
23715;DHT22;12036;50.858;4.472;2022-12-07T16:46:28;6.50;99.90
23715;DHT22;12036;50.858;4.472;2022-12-07T16:48:53;6.50;99.90
23715;DHT22;12036;50.858;4.472;2022-12-07T16:51:19;6.50;99.90
23715;DHT22;12036;50.858;4.472;2022-12-07T16:53:44;6.50;99.90
23715;DHT22;12036;50.858;4.472;2022-12-07T16:56:11;6.50;99.90
23715;DHT22;12036;50.858;4.472;2022-12-07T16:58:37;6.50;99.90
23715;DHT22;12036;50.858;4.472;2022-12-07T17:01:11;6.50;99.90
23715;DHT22;12036;50.858;4.472;2022-12-07T17:03:37;6.50;99.90
23715;DHT22;12036;50.858;4.472;2022-12-07T17:06:03;6.50;99.90
23715;DHT22;12036;50.858;4.472;2022-12-07T17:08:28;6.50;99.90
23715;DHT22;12036;50.858;4.472;2022-12-07T17:10:54;6.50;99.90
23715;DHT22;12036;50.858;4.472;2022-12-07T17:13:20;6.50;99.90
23715;DHT22;12036;50.858;4.472;2022-12-07T17:16:05;6.50;99.90
23715;DHT22;12036;50.858;4.472;2022-12-07T17:18:33;6.50;99.90
23715;DHT22;12036;50.858;4.472;2022-12-07T17:21:04;6.60;99.90
23715;DHT22;12036;50.858;4.472;2022-12-07T17:23:31;6.60;99.90
23715;DHT22;12036;50.858;4.472;2022-12-07T17:26:04;6.40;99.90
23715;DHT22;12036;50.858;4.472;2022-12-07T17:28:30;6.50;99.90
23715;DHT22;12036;50.858;4.472;2022-12-07T17:30:55;6.40;99.90
23715;DHT22;12036;50.858;4.472;2022-12-07T17:33:21;6.40;99.90
23715;DHT22;12036;50.858;4.472;2022-12-07T17:35:47;6.40;99.90
23715;DHT22;12036;50.858;4.472;2022-12-07T17:38:13;6.50;99.90
23715;DHT22;12036;50.858;4.472;2022-12-07T17:40:38;6.50;99.90
23715;DHT22;12036;50.858;4.472;2022-12-07T17:43:04;6.50;99.90
23715;DHT22;12036;50.858;4.472;2022-12-07T17:45:30;6.40;99.90
23715;DHT22;12036;50.858;4.472;2022-12-07T17:47:56;6.40;99.90
23715;DHT22;12036;50.858;4.472;2022-12-07T17:50:21;6.50;99.90
23715;DHT22;12036;50.858;4.472;2022-12-07T17:53:12;6.40;99.90
23715;DHT22;12036;50.858;4.472;2022-12-07T17:55:38;6.40;99.90
23715;DHT22;12036;50.858;4.472;2022-12-07T17:58:04;6.40;99.90
23715;DHT22;12036;50.858;4.472;2022-12-07T18:00:30;6.40;99.90
23715;DHT22;12036;50.858;4.472;2022-12-07T18:03:05;6.40;99.90
23715;DHT22;12036;50.858;4.472;2022-12-07T18:05:32;6.30;99.90
23715;DHT22;12036;50.858;4.472;2022-12-07T18:07:58;6.40;99.90
23715;DHT22;12036;50.858;4.472;2022-12-07T18:10:23;6.30;99.90
23715;DHT22;12036;50.858;4.472;2022-12-07T18:12:49;6.30;99.90
23715;DHT22;12036;50.858;4.472;2022-12-07T18:15:14;6.20;99.90
23715;DHT22;12036;50.858;4.472;2022-12-07T18:17:40;6.20;99.90
23715;DHT22;12036;50.858;4.472;2022-12-07T18:20:07;6.20;99.90
23715;DHT22;12036;50.858;4.472;2022-12-07T18:22:33;6.20;99.90
23715;DHT22;12036;50.858;4.472;2022-12-07T18:24:58;6.20;99.90
23715;DHT22;12036;50.858;4.472;2022-12-07T18:27:24;6.20;99.90
23715;DHT22;12036;50.858;4.472;2022-12-07T18:29:50;6.20;99.90
23715;DHT22;12036;50.858;4.472;2022-12-07T18:32:15;6.30;99.90
23715;DHT22;12036;50.858;4.472;2022-12-07T18:34:41;6.20;99.90
23715;DHT22;12036;50.858;4.472;2022-12-07T18:37:07;6.20;99.90
23715;DHT22;12036;50.858;4.472;2022-12-07T18:39:32;6.20;99.90
23715;DHT22;12036;50.858;4.472;2022-12-07T18:41:58;6.10;99.90
23715;DHT22;12036;50.858;4.472;2022-12-07T18:44:23;6.10;99.90